Аэропорт: Емельяново. Красноярск

ICAO: UNKL

METAR:
2018/07/16 19:30
UNKL 161930Z 00000MPS CAVOK 10/09 Q1009 R11/CLRD65 NOSIG RMK QFE731
METAR:
2018/07/16 18:21
TAF UNKL 161657Z 1618/1718 05003MPS CAVOK 
     FM170300 07007G14MPS 9999 SCT040 
      BECMG 1714/1715 05003G08MPS